createdAt,value
2019-03-06T00:00:12.338Z,6.70
2019-03-06T00:02:43.431Z,6.90
2019-03-06T00:05:15.817Z,6.47
2019-03-06T00:07:47.657Z,7.07
2019-03-06T00:10:27.967Z,8.20
2019-03-06T00:12:59.201Z,7.30
2019-03-06T00:15:30.615Z,7.60
2019-03-06T00:18:02.762Z,7.27
2019-03-06T00:20:34.098Z,6.70
2019-03-06T00:23:06.856Z,7.50
2019-03-06T00:25:37.957Z,7.53
2019-03-06T00:28:10.718Z,6.80
2019-03-06T00:30:41.887Z,7.27
2019-03-06T00:33:13.929Z,7.40
2019-03-06T00:35:47.322Z,6.60
2019-03-06T00:38:19.411Z,6.90
2019-03-06T00:41:14.430Z,7.10
2019-03-06T00:43:45.617Z,7.40
2019-03-06T00:46:18.409Z,6.93
2019-03-06T00:48:50.593Z,7.80
2019-03-06T00:51:22.412Z,6.80
2019-03-06T00:53:54.448Z,7.40
2019-03-06T00:56:26.553Z,7.30
2019-03-06T00:58:57.717Z,7.40
2019-03-06T01:01:28.829Z,7.17
2019-03-06T01:04:01.290Z,8.17
2019-03-06T01:06:33.127Z,8.50
2019-03-06T01:09:07.718Z,8.13
2019-03-06T01:11:38.914Z,8.57
2019-03-06T01:14:11.327Z,9.60
2019-03-06T01:16:45.085Z,8.30
2019-03-06T01:19:18.459Z,8.73
2019-03-06T01:21:51.126Z,8.07
2019-03-06T01:24:22.259Z,7.77
2019-03-06T01:26:54.647Z,8.73
2019-03-06T01:29:25.930Z,8.57
2019-03-06T01:31:58.081Z,9.40
2019-03-06T01:35:06.221Z,9.40
2019-03-06T01:37:52.409Z,8.90
2019-03-06T01:40:42.820Z,8.60
2019-03-06T01:43:18.861Z,9.20
2019-03-06T01:45:51.560Z,9.87
2019-03-06T01:48:23.131Z,9.20
2019-03-06T01:50:57.478Z,9.53
2019-03-06T01:53:28.292Z,9.60
2019-03-06T01:56:00.100Z,9.53
2019-03-06T01:58:31.237Z,9.87
2019-03-06T02:01:03.618Z,9.93
2019-03-06T02:03:34.713Z,9.57
2019-03-06T02:06:06.582Z,10.27
2019-03-06T02:08:37.917Z,9.87
2019-03-06T02:11:09.186Z,10.23
2019-03-06T02:13:40.321Z,10.30
2019-03-06T02:16:11.503Z,11.23
2019-03-06T02:18:43.296Z,10.07
2019-03-06T02:21:14.402Z,9.73
2019-03-06T02:23:46.706Z,10.43
2019-03-06T02:26:18.141Z,9.93
2019-03-06T02:28:49.567Z,10.47
2019-03-06T02:31:21.538Z,10.27
2019-03-06T02:33:54.599Z,9.97
2019-03-06T02:36:32.901Z,10.50
2019-03-06T02:39:05.922Z,10.33
2019-03-06T02:41:37.912Z,11.13
2019-03-06T02:44:10.316Z,10.57
2019-03-06T02:46:42.129Z,10.70
2019-03-06T02:49:15.941Z,11.83
2019-03-06T02:51:48.190Z,11.33
2019-03-06T02:54:20.288Z,11.93
2019-03-06T02:56:53.314Z,12.33
2019-03-06T02:59:37.685Z,11.97
2019-03-06T03:02:21.461Z,12.00
2019-03-06T03:05:12.248Z,13.00
2019-03-06T03:07:43.355Z,12.30
2019-03-06T03:10:15.676Z,12.33
2019-03-06T03:12:47.016Z,11.97
2019-03-06T03:15:20.856Z,12.07
2019-03-06T03:17:52.606Z,11.80
2019-03-06T03:20:24.757Z,11.43
2019-03-06T03:22:56.736Z,12.00
2019-03-06T03:25:28.162Z,12.47
2019-03-06T03:27:59.289Z,12.43
2019-03-06T03:30:30.370Z,13.13
2019-03-06T03:33:01.449Z,14.27
2019-03-06T03:35:32.520Z,13.10
2019-03-06T03:38:03.623Z,13.30
2019-03-06T03:40:34.704Z,13.00
2019-03-06T03:43:05.796Z,13.07
2019-03-06T03:45:36.853Z,12.40
2019-03-06T03:48:08.464Z,13.00
2019-03-06T03:50:39.522Z,13.00
2019-03-06T03:53:10.640Z,14.20
2019-03-06T03:55:41.707Z,13.20
2019-03-06T03:58:12.825Z,13.50
2019-03-06T04:00:43.907Z,14.53
2019-03-06T04:03:15.112Z,14.33
2019-03-06T04:05:46.191Z,15.47
2019-03-06T04:08:17.301Z,15.93
2019-03-06T04:10:48.377Z,17.50
2019-03-06T04:13:19.499Z,17.17
2019-03-06T04:15:50.580Z,18.00
2019-03-06T04:18:21.694Z,16.47
2019-03-06T04:20:52.806Z,18.73
2019-03-06T04:23:24.020Z,18.03
2019-03-06T04:25:55.079Z,18.37
2019-03-06T04:28:28.006Z,18.47
2019-03-06T04:30:58.904Z,18.93
2019-03-06T04:33:30.322Z,19.23
2019-03-06T04:36:01.368Z,19.03
2019-03-06T04:38:32.476Z,18.43
2019-03-06T04:41:03.533Z,19.53
2019-03-06T04:43:34.637Z,19.47
2019-03-06T04:46:05.718Z,19.83
2019-03-06T04:48:36.830Z,20.07
2019-03-06T04:51:07.902Z,19.13
2019-03-06T04:53:39.027Z,18.57
2019-03-06T04:56:11.423Z,19.37
2019-03-06T04:58:42.532Z,19.50
2019-03-06T05:01:13.602Z,19.27
2019-03-06T05:03:44.758Z,19.83
2019-03-06T05:06:16.128Z,19.47
2019-03-06T05:08:47.219Z,20.13
2019-03-06T05:11:18.289Z,18.97
2019-03-06T05:13:49.403Z,20.43
2019-03-06T05:16:22.027Z,19.67
2019-03-06T05:18:56.822Z,20.73
2019-03-06T05:21:27.903Z,20.23
2019-03-06T05:23:59.031Z,22.00
2019-03-06T05:26:30.080Z,20.47
2019-03-06T05:29:01.232Z,20.73
2019-03-06T05:31:32.379Z,21.47
2019-03-06T05:34:03.497Z,19.50
2019-03-06T05:37:31.154Z,20.73
2019-03-06T05:40:02.246Z,19.73
2019-03-06T05:42:33.312Z,18.93
2019-03-06T05:45:04.502Z,19.73
2019-03-06T05:47:35.581Z,18.50
2019-03-06T05:50:06.942Z,20.23
2019-03-06T05:52:38.044Z,15.13
2019-03-06T05:55:10.211Z,16.80
2019-03-06T05:57:41.314Z,16.60
2019-03-06T06:00:13.037Z,17.93
2019-03-06T06:02:44.502Z,15.73
2019-03-06T06:05:15.909Z,17.10
2019-03-06T06:07:46.967Z,16.20
2019-03-06T06:10:18.192Z,15.40
2019-03-06T06:12:49.278Z,15.23
2019-03-06T06:15:20.404Z,16.93
2019-03-06T06:17:51.467Z,14.90
2019-03-06T06:20:22.644Z,16.00
2019-03-06T06:23:14.203Z,15.57
2019-03-06T06:25:45.331Z,14.73
2019-03-06T06:28:16.391Z,14.37
2019-03-06T06:30:47.531Z,15.23
2019-03-06T06:33:18.599Z,14.67
2019-03-06T06:35:49.746Z,14.27
2019-03-06T06:38:20.815Z,15.27
2019-03-06T06:40:51.948Z,15.17
2019-03-06T06:43:23.236Z,14.67
2019-03-06T06:45:54.399Z,14.30
2019-03-06T06:48:27.189Z,14.50
2019-03-06T06:51:44.176Z,13.77
2019-03-06T06:55:12.520Z,13.30
2019-03-06T06:58:44.052Z,13.23
2019-03-06T07:02:12.165Z,14.13
2019-03-06T07:05:35.586Z,13.83
2019-03-06T07:08:21.960Z,13.37
2019-03-06T07:11:20.841Z,12.83
2019-03-06T07:14:13.826Z,12.63
2019-03-06T07:17:03.661Z,12.87
2019-03-06T07:19:45.431Z,12.70
2019-03-06T07:22:38.090Z,13.10
2019-03-06T07:25:31.494Z,12.90
2019-03-06T07:28:32.030Z,11.77
2019-03-06T07:31:30.743Z,12.67
2019-03-06T07:34:22.959Z,13.03
2019-03-06T07:37:01.214Z,12.53
2019-03-06T07:39:38.251Z,12.47
2019-03-06T07:42:31.060Z,11.37
2019-03-06T07:45:59.553Z,11.40
2019-03-06T07:48:56.648Z,11.50
2019-03-06T07:51:46.537Z,11.57
2019-03-06T07:54:30.606Z,11.50
2019-03-06T07:57:38.914Z,11.30
2019-03-06T08:00:20.482Z,11.73
2019-03-06T08:03:14.437Z,10.63
2019-03-06T08:05:46.291Z,11.83
2019-03-06T08:08:17.342Z,10.27
2019-03-06T08:10:48.809Z,10.23
2019-03-06T08:13:38.705Z,10.50
2019-03-06T08:16:31.544Z,10.73
2019-03-06T08:19:24.449Z,9.93
2019-03-06T08:22:19.068Z,10.50
2019-03-06T08:25:03.584Z,10.23
2019-03-06T08:27:34.722Z,9.03
2019-03-06T08:30:08.541Z,10.30
2019-03-06T08:32:39.653Z,10.63
2019-03-06T08:35:11.671Z,9.83
2019-03-06T08:37:42.761Z,10.50
2019-03-06T08:40:14.445Z,9.27
2019-03-06T08:42:45.508Z,9.97
2019-03-06T08:45:19.182Z,9.70
2019-03-06T08:48:07.904Z,9.43
2019-03-06T08:50:48.098Z,10.00
2019-03-06T08:53:28.104Z,9.30
2019-03-06T08:56:09.475Z,8.57
2019-03-06T08:59:05.345Z,9.30
2019-03-06T09:02:00.610Z,8.97
2019-03-06T09:04:48.436Z,9.60
2019-03-06T09:07:40.364Z,9.17
2019-03-06T09:10:49.654Z,8.83
2019-03-06T09:13:40.462Z,9.30
2019-03-06T09:16:37.414Z,9.00
2019-03-06T09:19:27.111Z,9.90
2019-03-06T09:22:14.330Z,9.30
2019-03-06T09:24:53.172Z,10.03
2019-03-06T09:27:40.809Z,9.67
2019-03-06T09:30:42.095Z,9.63
2019-03-06T09:33:31.383Z,10.30
2019-03-06T09:36:19.083Z,8.97
2019-03-06T09:39:13.050Z,9.63
2019-03-06T09:42:02.275Z,10.90
2019-03-06T09:44:52.518Z,11.80
2019-03-06T09:47:57.578Z,11.03
2019-03-06T09:50:50.179Z,9.90
2019-03-06T09:53:27.538Z,10.23
2019-03-06T09:56:10.567Z,11.57
2019-03-06T09:59:00.927Z,11.13
2019-03-06T10:01:41.288Z,10.20
2019-03-06T10:04:34.857Z,10.30
2019-03-06T10:07:25.360Z,9.83
2019-03-06T10:10:14.824Z,12.13
2019-03-06T10:13:17.349Z,9.53
2019-03-06T10:15:59.704Z,9.47
2019-03-06T10:18:44.267Z,8.90
2019-03-06T10:21:15.878Z,11.10
2019-03-06T10:23:48.977Z,8.73
2019-03-06T10:26:20.729Z,9.07
2019-03-06T10:28:53.113Z,9.07
2019-03-06T10:31:24.905Z,9.53
2019-03-06T10:33:56.379Z,8.30
2019-03-06T10:36:28.260Z,8.50
2019-03-06T10:38:59.876Z,8.13
2019-03-06T10:41:31.409Z,7.47
2019-03-06T10:44:03.077Z,7.93
2019-03-06T10:46:34.627Z,8.17
2019-03-06T10:49:06.385Z,7.70
2019-03-06T10:51:37.989Z,10.00
2019-03-06T10:54:09.622Z,7.67
2019-03-06T10:56:41.368Z,8.60
2019-03-06T10:59:12.993Z,7.90
2019-03-06T11:01:44.662Z,7.33
2019-03-06T11:04:31.686Z,7.70
2019-03-06T11:07:03.387Z,7.73
2019-03-06T11:09:35.408Z,7.23
2019-03-06T11:12:08.568Z,7.30
2019-03-06T11:14:40.341Z,6.93
2019-03-06T11:17:12.004Z,6.30
2019-03-06T11:19:43.845Z,6.07
2019-03-06T11:22:15.382Z,6.70
2019-03-06T11:24:46.907Z,6.13
2019-03-06T11:27:18.490Z,5.90
2019-03-06T11:29:50.279Z,5.83
2019-03-06T11:32:22.117Z,5.80
2019-03-06T11:34:53.878Z,5.77
2019-03-06T11:37:25.604Z,6.57
2019-03-06T11:39:57.117Z,5.90
2019-03-06T11:42:28.784Z,5.63
2019-03-06T11:45:00.288Z,6.20
2019-03-06T11:47:31.933Z,6.17
2019-03-06T11:50:03.434Z,5.47
2019-03-06T11:52:35.060Z,5.50
2019-03-06T11:55:08.342Z,5.80
2019-03-06T11:57:40.725Z,5.77
2019-03-06T12:00:25.019Z,6.03
2019-03-06T12:02:57.115Z,5.87
2019-03-06T12:05:29.509Z,5.87
2019-03-06T12:08:02.158Z,6.00
2019-03-06T12:10:33.740Z,5.67
2019-03-06T12:13:08.973Z,5.63
2019-03-06T12:15:41.100Z,6.10
2019-03-06T12:18:13.707Z,5.70
2019-03-06T12:20:45.559Z,5.67
2019-03-06T12:23:17.205Z,5.27
2019-03-06T12:25:50.874Z,5.77
2019-03-06T12:28:25.338Z,6.03
2019-03-06T12:30:58.640Z,5.40
2019-03-06T12:33:31.101Z,5.20
2019-03-06T12:36:02.769Z,5.53
2019-03-06T12:38:34.478Z,6.10
2019-03-06T12:41:06.425Z,5.87
2019-03-06T12:43:38.518Z,5.07
2019-03-06T12:46:28.528Z,6.67
2019-03-06T12:49:22.644Z,5.87
2019-03-06T12:51:54.852Z,5.47
2019-03-06T12:54:26.691Z,6.43
2019-03-06T12:56:58.219Z,5.50
2019-03-06T12:59:31.181Z,5.43
2019-03-06T13:02:21.880Z,5.27
2019-03-06T13:04:53.576Z,5.50
2019-03-06T13:07:25.047Z,5.53
2019-03-06T13:09:56.656Z,5.20
2019-03-06T13:12:29.230Z,5.20
2019-03-06T13:15:01.665Z,5.10
2019-03-06T13:17:36.370Z,5.20
2019-03-06T13:20:11.209Z,5.40
2019-03-06T13:22:43.801Z,5.17
2019-03-06T13:25:17.412Z,5.30
2019-03-06T13:27:54.824Z,5.67
2019-03-06T13:30:25.056Z,5.40
2019-03-06T13:33:14.766Z,5.43
2019-03-06T13:35:46.326Z,5.37
2019-03-06T13:38:17.987Z,5.70
2019-03-06T13:40:50.087Z,6.03
2019-03-06T13:43:21.704Z,5.63
2019-03-06T13:45:53.489Z,6.13
2019-03-06T13:48:26.350Z,6.07
2019-03-06T13:50:58.443Z,6.40
2019-03-06T13:53:35.274Z,5.50
2019-03-06T13:56:09.271Z,6.60
2019-03-06T13:58:41.579Z,6.27
2019-03-06T14:01:14.927Z,6.10
2019-03-06T14:03:47.494Z,6.03
2019-03-06T14:06:19.553Z,5.57
2019-03-06T14:08:51.679Z,5.50
2019-03-06T14:11:23.812Z,5.37
2019-03-06T14:13:55.477Z,5.30
2019-03-06T14:16:27.212Z,5.73
2019-03-06T14:18:59.061Z,5.20
2019-03-06T14:21:31.190Z,5.23
2019-03-06T14:24:03.290Z,5.03
2019-03-06T14:26:35.592Z,4.93
2019-03-06T14:29:07.526Z,5.10
2019-03-06T14:31:39.059Z,5.17
2019-03-06T14:34:10.970Z,4.83
2019-03-06T14:36:43.180Z,4.33
2019-03-06T14:39:34.392Z,4.70
2019-03-06T14:42:06.496Z,4.90
2019-03-06T14:44:38.656Z,3.80
2019-03-06T14:47:10.845Z,4.20
2019-03-06T14:49:42.981Z,4.13
2019-03-06T14:52:17.562Z,4.10
2019-03-06T14:54:49.296Z,5.67
2019-03-06T14:57:21.019Z,3.93
2019-03-06T14:59:52.868Z,4.03
2019-03-06T15:02:24.478Z,4.20
2019-03-06T15:04:56.082Z,3.97
2019-03-06T15:07:27.731Z,3.87
2019-03-06T15:09:59.483Z,3.90
2019-03-06T15:12:32.456Z,3.60
2019-03-06T15:15:04.415Z,3.80
2019-03-06T15:17:35.879Z,3.93
2019-03-06T15:20:08.489Z,3.90
2019-03-06T15:22:40.037Z,3.70
2019-03-06T15:25:15.495Z,3.50
2019-03-06T15:27:47.036Z,3.70
2019-03-06T15:30:20.140Z,3.97
2019-03-06T15:32:51.806Z,3.53
2019-03-06T15:35:23.554Z,3.73
2019-03-06T15:37:55.261Z,3.67
2019-03-06T15:40:27.705Z,3.40
2019-03-06T15:42:59.229Z,3.60
2019-03-06T15:45:33.837Z,3.37
2019-03-06T15:48:05.827Z,3.57
2019-03-06T15:50:37.277Z,3.77
2019-03-06T15:53:11.291Z,3.60
2019-03-06T15:55:44.579Z,3.80
2019-03-06T15:58:19.010Z,3.47
2019-03-06T16:00:59.231Z,3.50
2019-03-06T16:03:34.897Z,4.10
2019-03-06T16:06:08.321Z,3.57
2019-03-06T16:08:42.789Z,3.70
2019-03-06T16:11:15.204Z,3.37
2019-03-06T16:13:50.855Z,3.23
2019-03-06T16:16:22.976Z,4.00
2019-03-06T16:18:54.736Z,3.57
2019-03-06T16:21:26.494Z,3.57
2019-03-06T16:23:57.619Z,3.73
2019-03-06T16:26:28.692Z,4.00
2019-03-06T16:28:59.789Z,3.90
2019-03-06T16:31:30.934Z,3.80
2019-03-06T16:34:02.165Z,4.00
2019-03-06T16:36:33.258Z,4.20
2019-03-06T16:39:05.975Z,3.93
2019-03-06T16:41:37.216Z,4.53
2019-03-06T16:44:08.440Z,4.10
2019-03-06T16:46:39.490Z,4.00
2019-03-06T16:49:10.686Z,3.90
2019-03-06T16:51:41.937Z,4.27
2019-03-06T16:54:13.263Z,4.67
2019-03-06T16:56:44.410Z,4.10
2019-03-06T16:59:15.520Z,4.30
2019-03-06T17:01:46.573Z,4.00
2019-03-06T17:04:17.867Z,4.10
2019-03-06T17:06:49.214Z,3.90
2019-03-06T17:09:20.526Z,4.17
2019-03-06T17:11:51.877Z,4.10
2019-03-06T17:14:23.497Z,3.70
2019-03-06T17:16:54.565Z,3.67
2019-03-06T17:19:25.952Z,4.73
2019-03-06T17:21:57.158Z,3.70
2019-03-06T17:24:28.748Z,4.10
2019-03-06T17:26:59.836Z,4.47
2019-03-06T17:29:30.957Z,4.23
2019-03-06T17:32:02.758Z,4.60
2019-03-06T17:34:33.880Z,4.27
2019-03-06T17:37:05.571Z,4.80
2019-03-06T17:39:36.673Z,4.67
2019-03-06T17:42:08.025Z,4.93
2019-03-06T17:44:39.385Z,4.67
2019-03-06T17:47:10.601Z,4.33
2019-03-06T17:49:41.768Z,4.20
2019-03-06T17:52:12.922Z,4.23
2019-03-06T17:54:43.975Z,4.20
2019-03-06T17:57:15.290Z,4.53
2019-03-06T17:59:46.301Z,4.70
2019-03-06T18:02:17.478Z,4.10
2019-03-06T18:04:48.531Z,4.40
2019-03-06T18:07:19.656Z,4.27
2019-03-06T18:09:56.098Z,4.20
2019-03-06T18:12:33.622Z,4.00
2019-03-06T18:15:08.231Z,4.20
2019-03-06T18:17:42.298Z,3.80
2019-03-06T18:20:17.520Z,4.20
2019-03-06T18:22:55.272Z,4.27
2019-03-06T18:25:28.836Z,4.30
2019-03-06T18:28:03.428Z,4.40
2019-03-06T18:30:34.691Z,4.73
2019-03-06T18:33:05.907Z,4.97
2019-03-06T18:35:37.082Z,4.47
2019-03-06T18:38:08.254Z,4.47
2019-03-06T18:40:39.444Z,4.57
2019-03-06T18:43:10.497Z,4.50
2019-03-06T18:45:42.350Z,4.00
2019-03-06T18:48:13.549Z,5.07
2019-03-06T18:50:45.529Z,4.67
2019-03-06T18:53:16.668Z,5.20
2019-03-06T18:55:47.807Z,5.00
2019-03-06T18:58:19.123Z,4.80
2019-03-06T19:00:50.209Z,5.87
2019-03-06T19:03:21.283Z,4.73
2019-03-06T19:05:52.338Z,5.10
2019-03-06T19:08:31.083Z,4.40
2019-03-06T19:10:56.608Z,4.97
2019-03-06T19:13:27.853Z,5.07
2019-03-06T19:15:58.928Z,4.60
2019-03-06T19:18:30.177Z,5.10
2019-03-06T19:21:01.282Z,4.80
2019-03-06T19:23:32.613Z,5.07
2019-03-06T19:26:03.978Z,5.10
2019-03-06T19:28:35.236Z,4.27
2019-03-06T19:31:06.911Z,4.60
2019-03-06T19:33:38.338Z,4.77
2019-03-06T19:36:09.536Z,4.80
2019-03-06T19:38:40.681Z,5.03
2019-03-06T19:41:11.834Z,5.33
2019-03-06T19:43:42.949Z,4.80
2019-03-06T19:46:14.223Z,5.10
2019-03-06T19:48:45.364Z,4.73
2019-03-06T19:51:16.406Z,5.30
2019-03-06T19:53:47.506Z,5.40
2019-03-06T19:56:18.602Z,5.40
2019-03-06T19:58:49.971Z,4.93
2019-03-06T20:01:21.035Z,4.87
2019-03-06T20:03:52.139Z,4.70
2019-03-06T20:06:27.128Z,5.10
2019-03-06T20:08:56.129Z,5.40
2019-03-06T20:11:27.177Z,4.90
2019-03-06T20:13:58.282Z,5.37
2019-03-06T20:16:29.323Z,5.33
2019-03-06T20:19:02.278Z,5.70
2019-03-06T20:21:33.138Z,6.37
2019-03-06T20:24:04.288Z,6.20
2019-03-06T20:26:37.946Z,5.33
2019-03-06T20:29:09.425Z,6.40
2019-03-06T20:31:40.506Z,5.70
2019-03-06T20:34:12.035Z,5.87
2019-03-06T20:36:43.077Z,5.90
2019-03-06T20:39:14.190Z,5.87
2019-03-06T20:41:45.239Z,5.43
2019-03-06T20:44:17.801Z,4.77
2019-03-06T20:46:49.090Z,5.50
2019-03-06T20:49:20.188Z,4.83
2019-03-06T20:51:51.443Z,4.83
2019-03-06T20:54:22.535Z,4.90
2019-03-06T20:56:53.998Z,5.23
2019-03-06T20:59:25.090Z,4.80
2019-03-06T21:01:56.125Z,5.60
2019-03-06T21:04:29.360Z,5.20
2019-03-06T21:07:04.141Z,4.77
2019-03-06T21:09:36.027Z,4.90
2019-03-06T21:12:07.620Z,5.80
2019-03-06T21:14:39.033Z,4.80
2019-03-06T21:17:10.141Z,5.63
2019-03-06T21:19:41.335Z,4.93
2019-03-06T21:22:14.981Z,5.20
2019-03-06T21:24:46.773Z,5.63
2019-03-06T21:27:20.516Z,4.87
2019-03-06T21:29:54.762Z,4.97
2019-03-06T21:32:25.860Z,5.30
2019-03-06T21:35:01.952Z,5.20
2019-03-06T21:37:47.436Z,5.43
2019-03-06T21:40:22.692Z,4.90
2019-03-06T21:42:56.777Z,5.57
2019-03-06T21:45:30.688Z,5.00
2019-03-06T21:48:05.286Z,5.33
2019-03-06T21:50:39.161Z,5.10
2019-03-06T21:53:11.344Z,4.87
2019-03-06T21:55:43.507Z,4.80
2019-03-06T21:58:15.553Z,4.23
2019-03-06T22:00:47.876Z,5.00
2019-03-06T22:03:19.222Z,4.37
2019-03-06T22:05:50.639Z,4.63
2019-03-06T22:08:21.724Z,4.27
2019-03-06T22:10:52.976Z,4.50
2019-03-06T22:13:24.044Z,4.27
2019-03-06T22:15:55.260Z,4.10
2019-03-06T22:18:26.621Z,3.63
2019-03-06T22:20:57.734Z,3.73
2019-03-06T22:23:28.935Z,4.03
2019-03-06T22:26:00.076Z,4.10
2019-03-06T22:28:31.144Z,3.63
2019-03-06T22:31:02.411Z,3.40
2019-03-06T22:33:33.471Z,3.50
2019-03-06T22:36:04.639Z,3.13
2019-03-06T22:38:35.754Z,3.37
2019-03-06T22:41:06.809Z,3.30
2019-03-06T22:43:37.897Z,3.73
2019-03-06T22:46:08.937Z,3.40
2019-03-06T22:48:41.974Z,2.80
2019-03-06T22:51:15.414Z,3.30
2019-03-06T22:53:46.635Z,3.30
2019-03-06T22:56:30.234Z,3.03
2019-03-06T22:59:01.278Z,3.27
2019-03-06T23:01:38.125Z,3.20
2019-03-06T23:04:09.557Z,3.80
2019-03-06T23:06:40.593Z,2.87
2019-03-06T23:09:15.470Z,3.30
2019-03-06T23:11:46.824Z,3.20
2019-03-06T23:14:18.853Z,2.93
2019-03-06T23:16:50.211Z,2.83
2019-03-06T23:19:21.271Z,3.13
2019-03-06T23:21:52.309Z,3.20
2019-03-06T23:24:23.379Z,3.13
2019-03-06T23:26:54.425Z,2.80
2019-03-06T23:29:25.694Z,3.40
2019-03-06T23:31:56.749Z,2.83
2019-03-06T23:34:29.986Z,2.90
2019-03-06T23:37:01.023Z,2.67
2019-03-06T23:39:32.091Z,2.63
2019-03-06T23:42:03.352Z,3.13
2019-03-06T23:44:34.411Z,2.70
2019-03-06T23:47:05.453Z,2.50
2019-03-06T23:49:37.150Z,2.57
2019-03-06T23:52:14.210Z,2.90
2019-03-06T23:54:45.790Z,2.47
2019-03-06T23:57:16.838Z,2.73
2019-03-06T23:59:48.207Z,2.70
